Stations météo

réclame
Mon MeteoGroup
Drumnadrochit, Grande-Bretagne (99132): Température de l'air & dewpoint: 15.02.2019 14:00:00 - 21.02.2019 14:00:00 (GMT)Drumnadrochit, Grande-Bretagne (99132): Quantités de précipitations: 15.02.2019 14:00:00 - 21.02.2019 14:00:00 (GMT)
Date & Time tt [°C] td [°C] rr [mm]
21.02.2019 14:00:00 14,2 10,4 0,0
21.02.2019 13:00:00 14,0 10,4 0,0
21.02.2019 12:00:00 13,9 10,6 0,0
21.02.2019 11:00:00 14,0 10,6 0,0
21.02.2019 10:00:00 12,9 10,3 0,0
21.02.2019 09:00:00 12,3 10,2 0,0
21.02.2019 08:00:00 10,5 9,6 0,0
21.02.2019 07:00:00 9,4 8,3 0,0
21.02.2019 06:00:00 9,4 8,0 0,0
21.02.2019 05:00:00 10,9 10,3 0,0
21.02.2019 04:00:00 5,8 5,8 0,0
21.02.2019 03:00:00 5,8 5,8 0,0
21.02.2019 02:00:00 4,3 4,3 0,0
21.02.2019 01:00:00 3,8 3,5 0,0
21.02.2019 00:00:00 5,4 5,1 0,0
20.02.2019 23:00:00 7,6 5,9 0,2
20.02.2019 22:00:00 8,5 6,2 0,0
20.02.2019 21:00:00 8,9 5,7 0,0
20.02.2019 20:00:00 9,3 5,9 0,0
20.02.2019 19:00:00 10,0 7,6 0,0
20.02.2019 18:00:00 9,6 7,1 0,0
20.02.2019 17:00:00 10,1 7,7 0,0
20.02.2019 16:00:00 10,8 8,5 0,0
20.02.2019 15:00:00 - - -
20.02.2019 14:00:00 - - -
20.02.2019 13:00:00 - - 0,0
20.02.2019 12:00:00 11,1 8,9 0,2
20.02.2019 11:00:00 10,8 9,0 0,0
20.02.2019 10:00:00 10,8 8,6 0,0
20.02.2019 09:00:00 10,6 8,6 0,2
20.02.2019 08:00:00 10,4 8,8 0,4
20.02.2019 07:00:00 10,7 8,6 0,0
20.02.2019 06:00:00 10,1 8,5 0,2
20.02.2019 05:00:00 9,7 8,1 0,2
20.02.2019 04:00:00 9,1 8,6 0,0
20.02.2019 03:00:00 4,8 4,7 0,2
20.02.2019 02:00:00 4,5 4,2 0,0
20.02.2019 01:00:00 5,0 4,7 0,0
20.02.2019 00:00:00 5,1 4,8 0,0
19.02.2019 23:00:00 5,1 4,8 0,2
19.02.2019 22:00:00 4,8 4,6 0,8
19.02.2019 21:00:00 4,6 4,4 0,6
19.02.2019 20:00:00 4,6 4,3 0,6
19.02.2019 19:00:00 5,0 4,5 0,4
19.02.2019 18:00:00 6,4 3,7 0,0
19.02.2019 17:00:00 7,1 3,6 0,0
19.02.2019 16:00:00 7,4 3,6 0,0
19.02.2019 15:00:00 8,0 4,0 0,0
19.02.2019 14:00:00 7,8 4,7 0,0
19.02.2019 13:00:00 7,7 5,0 0,0
19.02.2019 12:00:00 7,5 5,2 0,0
19.02.2019 11:00:00 5,6 5,2 0,0
19.02.2019 10:00:00 4,2 4,1 0,0
19.02.2019 09:00:00 2,4 2,4 0,0
19.02.2019 08:00:00 2,1 2,0 0,0
19.02.2019 07:00:00 1,5 0,8 0,2
19.02.2019 06:00:00 3,6 3,2 0,6
19.02.2019 05:00:00 4,9 3,5 0,2
19.02.2019 04:00:00 3,0 1,5 0,0
19.02.2019 03:00:00 3,2 1,9 0,0
19.02.2019 02:00:00 4,3 2,9 0,0
19.02.2019 01:00:00 5,3 3,1 0,0
19.02.2019 00:00:00 5,1 4,1 0,0
18.02.2019 23:00:00 5,1 4,1 0,2
18.02.2019 22:00:00 6,4 5,0 0,0
18.02.2019 21:00:00 5,8 4,2 0,6
18.02.2019 20:00:00 6,2 3,3 0,0
18.02.2019 19:00:00 5,6 3,3 0,2
18.02.2019 18:00:00 6,3 3,3 0,0
18.02.2019 17:00:00 6,9 4,3 0,0
18.02.2019 16:00:00 6,5 3,9 0,0
18.02.2019 15:00:00 5,9 3,5 0,6
18.02.2019 14:00:00 6,1 3,7 1,4
18.02.2019 13:00:00 7,9 3,7 0,0
18.02.2019 12:00:00 7,7 4,1 0,0
18.02.2019 11:00:00 7,1 3,7 0,4
18.02.2019 10:00:00 7,3 2,7 0,0
18.02.2019 09:00:00 7,2 2,5 0,0
18.02.2019 08:00:00 6,8 2,2 0,0
18.02.2019 07:00:00 7,0 0,7 0,0
18.02.2019 06:00:00 7,0 0,9 0,0
18.02.2019 05:00:00 6,9 1,6 0,0
18.02.2019 04:00:00 7,2 3,5 0,0
18.02.2019 03:00:00 6,9 3,9 0,4
18.02.2019 02:00:00 6,7 3,9 0,2
18.02.2019 01:00:00 7,6 3,6 0,2
18.02.2019 00:00:00 7,4 2,8 0,0
17.02.2019 23:00:00 7,3 3,3 0,0
17.02.2019 22:00:00 7,5 3,6 0,4
17.02.2019 21:00:00 8,6 2,8 0,0
17.02.2019 20:00:00 7,7 2,8 0,0
17.02.2019 19:00:00 7,6 3,1 0,0
17.02.2019 18:00:00 5,1 3,2 0,0
17.02.2019 17:00:00 7,1 3,7 0,0
17.02.2019 16:00:00 6,7 3,6 1,2
17.02.2019 15:00:00 6,8 3,7 0,8
17.02.2019 14:00:00 10,5 6,9 0,0
17.02.2019 13:00:00 10,9 5,8 0,0
17.02.2019 12:00:00 11,6 5,8 0,0
17.02.2019 11:00:00 - - 0,0
17.02.2019 10:00:00 11,7 5,6 0,0
17.02.2019 09:00:00 11,4 5,8 0,0
17.02.2019 08:00:00 11,3 5,5 0,0
17.02.2019 07:00:00 11,3 5,5 0,0
17.02.2019 06:00:00 11,2 6,3 0,0
17.02.2019 05:00:00 11,4 6,8 0,0
17.02.2019 04:00:00 10,3 6,9 0,0
17.02.2019 03:00:00 11,1 6,4 0,0
17.02.2019 02:00:00 7,4 4,6 0,0
17.02.2019 01:00:00 7,5 4,8 0,0
17.02.2019 00:00:00 9,9 4,4 0,0
16.02.2019 23:00:00 9,9 4,6 0,0
16.02.2019 22:00:00 9,7 4,4 0,0
16.02.2019 21:00:00 9,6 4,3 0,0
16.02.2019 20:00:00 7,4 4,3 0,0
16.02.2019 19:00:00 8,3 4,0 0,0
16.02.2019 18:00:00 7,0 4,7 0,0
16.02.2019 17:00:00 8,3 4,6 0,0
16.02.2019 16:00:00 8,7 4,8 0,0
16.02.2019 15:00:00 9,1 5,5 0,0
16.02.2019 14:00:00 9,1 5,2 0,0
16.02.2019 13:00:00 9,8 5,0 0,0
16.02.2019 12:00:00 9,9 5,1 0,0
16.02.2019 11:00:00 9,7 6,9 0,0
16.02.2019 10:00:00 9,3 6,6 0,0
16.02.2019 09:00:00 8,8 6,6 0,0
16.02.2019 08:00:00 8,2 6,6 0,0
16.02.2019 07:00:00 7,9 7,5 0,0
16.02.2019 06:00:00 5,2 5,1 0,0
16.02.2019 05:00:00 5,5 5,0 0,2
16.02.2019 04:00:00 5,4 4,6 0,0
16.02.2019 03:00:00 5,3 4,6 0,0
16.02.2019 02:00:00 6,8 6,0 1,2
16.02.2019 01:00:00 7,8 7,3 2,2
16.02.2019 00:00:00 8,5 7,8 2,4
15.02.2019 23:00:00 9,2 7,8 2,6
15.02.2019 22:00:00 9,4 7,3 0,6
15.02.2019 21:00:00 9,6 7,1 0,2
15.02.2019 20:00:00 10,7 6,3 0,0
15.02.2019 19:00:00 10,4 5,8 0,0
15.02.2019 18:00:00 10,8 5,7 0,0
15.02.2019 17:00:00 11,3 5,2 0,0
15.02.2019 16:00:00 11,8 4,9 0,0
15.02.2019 15:00:00 12,7 4,5 0,0
15.02.2019 14:00:00 12,4 3,9 0,0

tt = Température de l'air
td = dewpoint
rr = Quantités de précipitations

stations d'obs. à proximité